Time;durP1;ratioP1;P1;durP2;ratioP2;P2;SDS_P1;SDS_P2;PMS_P1;PMS_P2;Temp;Humidity;BMP_temperature;BMP_pressure;BME280_temperature;BME280_humidity;BME280_pressure;Samples;Min_cycle;Max_cycle;Signal;HPM_P1;HPM_P2
2022/08/23 00:01:50;;;;;;;4.55;3.22;;;30.60;99.90;;;;;;5051560;28;20459;-49
2022/08/23 00:04:23;;;;;;;4.35;3.33;;;30.60;99.90;;;;;;5053288;28;20028;-52
2022/08/23 00:06:51;;;;;;;4.35;3.15;;;30.60;99.90;;;;;;5053151;28;20021;-50
2022/08/23 00:09:18;;;;;;;;;;;30.60;99.90;;;;;;5053731;28;20025;-50
2022/08/23 00:11:45;;;;;;;;;;;30.60;99.90;;;;;;5053659;28;19905;-49
2022/08/23 00:14:32;;;;;;;6.20;3.15;;;30.60;99.90;;;;;;5053238;28;20257;-49
2022/08/23 00:16:58;;;;;;;;;;;30.60;99.90;;;;;;5053272;28;20017;-49
2022/08/23 00:19:25;;;;;;;4.25;3.28;;;30.60;99.90;;;;;;5053024;28;20323;-50
2022/08/23 00:21:53;;;;;;;3.75;2.75;;;30.50;99.90;;;;;;5053181;28;20063;-50
2022/08/23 00:24:21;;;;;;;3.33;2.80;;;30.50;99.90;;;;;;5035137;28;20029;-49
2022/08/23 00:27:09;;;;;;;4.50;2.85;;;30.50;99.90;;;;;;5052901;28;20349;-50
2022/08/23 00:29:46;;;;;;;2.95;2.63;;;30.50;99.90;;;;;;5035018;28;20104;-49
2022/08/23 00:32:15;;;;;;;4.00;3.10;;;30.50;99.90;;;;;;5052880;28;20456;-49
2022/08/23 00:34:41;;;;;;;3.38;3.08;;;30.50;99.90;;;;;;5035021;28;20115;-49
2022/08/23 00:37:08;;;;;;;5.35;3.00;;;30.40;99.90;;;;;;5052725;28;20476;-49
2022/08/23 00:39:36;;;;;;;4.22;2.75;;;30.50;99.90;;;;;;5052813;28;20056;-49
2022/08/23 00:47:46;;;;;;;4.13;2.67;;;30.50;99.90;;;;;;5052807;28;20124;-49
2022/08/23 00:50:25;;;;;;;4.10;2.95;;;30.50;99.90;;;;;;5052275;28;20067;-49
2022/08/23 00:53:21;;;;;;;3.78;2.95;;;30.50;99.90;;;;;;5052342;28;20037;-49
2022/08/23 00:55:51;;;;;;;3.42;2.60;;;30.40;99.90;;;;;;5044367;28;20041;-50
2022/08/23 00:58:19;;;;;;;2.78;2.40;;;30.40;99.90;;;;;;5052279;28;20032;-50
2022/08/23 01:00:48;;;;;;;3.70;2.92;;;30.40;99.90;;;;;;5052785;28;20049;-49
2022/08/23 01:03:15;;;;;;;3.08;2.50;;;30.40;99.90;;;;;;5052488;28;20029;-50
2022/08/23 01:06:05;;;;;;;3.90;3.13;;;30.40;99.90;;;;;;5052227;28;20487;-50
2022/08/23 01:08:33;;;;;;;3.67;2.72;;;30.40;99.90;;;;;;5052032;28;20345;-50
2022/08/23 01:11:10;;;;;;;5.05;2.83;;;30.40;99.90;;;;;;5052109;28;20024;-50
2022/08/23 01:13:41;;;;;;;3.10;2.45;;;30.40;99.90;;;;;;5034272;28;21018;-49
2022/08/23 01:16:33;;;;;;;2.75;2.50;;;30.40;99.90;;;;;;5051956;28;20035;-50
2022/08/23 01:19:06;;;;;;;4.82;2.83;;;30.40;99.90;;;;;;5051904;28;20024;-50
2022/08/23 01:21:48;;;;;;;2.85;2.55;;;30.40;99.90;;;;;;5051982;28;20043;-50
2022/08/23 01:24:16;;;;;;;3.35;2.75;;;30.40;99.90;;;;;;5052044;28;20028;-50
2022/08/23 01:26:42;;;;;;;3.60;2.60;;;30.40;99.90;;;;;;5052112;28;20098;-50
2022/08/23 01:29:08;;;;;;;2.78;2.47;;;30.40;99.90;;;;;;5033860;28;20428;-50
2022/08/23 01:31:35;;;;;;;2.83;2.40;;;30.40;99.90;;;;;;5051666;28;20501;-50
2022/08/23 01:34:08;;;;;;;3.13;2.45;;;30.40;99.90;;;;;;5051583;28;20086;-49
2022/08/23 01:36:35;;;;;;;3.58;2.60;;;30.30;99.90;;;;;;5051557;28;20028;-50
2022/08/23 01:39:03;;;;;;;3.28;2.50;;;30.40;99.90;;;;;;5051485;28;20477;-50
2022/08/23 01:41:30;;;;;;;3.25;2.50;;;30.30;99.90;;;;;;5051608;28;20017;-50
2022/08/23 01:43:56;;;;;;;4.40;2.83;;;30.30;99.90;;;;;;5051464;28;20036;-50
2022/08/23 01:46:25;;;;;;;2.72;2.33;;;30.30;99.90;;;;;;5051454;28;20025;-50
2022/08/23 01:48:53;;;;;;;3.40;2.65;;;30.40;99.90;;;;;;5051514;28;20049;-50
2022/08/23 01:51:21;;;;;;;4.38;2.42;;;30.40;99.90;;;;;;5051180;28;20098;-50
2022/08/23 01:53:47;;;;;;;4.55;2.35;;;30.30;99.90;;;;;;5051441;28;20029;-50
2022/08/23 01:56:14;;;;;;;2.67;2.13;;;30.30;99.90;;;;;;5051182;28;20404;-50
2022/08/23 01:58:40;;;;;;;;;;;30.30;99.90;;;;;;5051732;28;20801;-49
2022/08/23 02:01:06;;;;;;;4.15;3.05;;;30.30;99.90;;;;;;5051001;28;20383;-49
2022/08/23 02:03:33;;;;;;;2.20;1.98;;;30.30;99.90;;;;;;5050996;28;20033;-50
2022/08/23 02:05:59;;;;;;;3.53;2.53;;;30.30;99.90;;;;;;5051276;28;20508;-50
2022/08/23 02:11:21;;;;;;;3.08;2.05;;;30.30;99.90;;;;;;5051189;28;20083;-49
2022/08/23 02:13:49;;;;;;;2.95;2.17;;;30.30;99.90;;;;;;5050955;28;20361;-50
2022/08/23 02:16:43;;;;;;;;;;;30.30;99.90;;;;;;5051354;28;20029;-50
2022/08/23 02:19:11;;;;;;;4.75;2.70;;;30.30;99.90;;;;;;5037704;28;19905;-49
2022/08/23 02:21:38;;;;;;;2.60;2.40;;;30.30;99.90;;;;;;5050949;28;20465;-50
2022/08/23 02:24:07;;;;;;;2.28;2.08;;;30.30;99.90;;;;;;5050895;28;20033;-57
2022/08/23 02:26:37;;;;;;;2.53;2.33;;;30.20;99.90;;;;;;5051003;28;20110;-50
2022/08/23 02:29:04;;;;;;;2.33;2.10;;;30.20;99.90;;;;;;5050772;28;20418;-50
2022/08/23 02:31:30;;;;;;;2.60;2.08;;;30.20;99.90;;;;;;5050783;28;20060;-49
2022/08/23 02:33:55;;;;;;;3.20;2.05;;;30.20;99.90;;;;;;5050757;28;20465;-49
2022/08/23 02:36:21;;;;;;;2.80;2.08;;;30.20;99.90;;;;;;5050823;28;20075;-50
2022/08/23 02:38:47;;;;;;;3.38;1.92;;;30.20;99.90;;;;;;5051005;28;20021;-49
2022/08/23 02:41:13;;;;;;;2.45;1.98;;;30.20;99.90;;;;;;5050679;28;20104;-49
2022/08/23 02:43:39;;;;;;;3.13;2.13;;;30.20;99.90;;;;;;5032605;28;20189;-50
2022/08/23 02:46:05;;;;;;;3.38;1.92;;;30.20;99.90;;;;;;5050680;28;20380;-50
2022/08/23 02:48:32;;;;;;;2.55;1.73;;;30.20;99.90;;;;;;5050703;28;20017;-49
2022/08/23 02:51:06;;;;;;;2.92;2.05;;;30.20;99.90;;;;;;5050596;28;20017;-49
2022/08/23 02:53:33;;;;;;;2.08;1.70;;;30.20;99.90;;;;;;5050536;28;20029;-49
2022/08/23 02:55:59;;;;;;;2.00;1.80;;;30.20;99.90;;;;;;5050497;28;20017;-48
2022/08/23 02:58:25;;;;;;;2.72;1.70;;;30.20;99.90;;;;;;5050410;28;20539;-49
2022/08/23 03:00:52;;;;;;;2.10;1.90;;;30.20;99.90;;;;;;5050939;28;20496;-49
2022/08/23 03:03:18;;;;;;;3.75;2.20;;;30.20;99.90;;;;;;5050481;28;20031;-49
2022/08/23 03:05:44;;;;;;;2.67;1.83;;;30.20;99.90;;;;;;5050409;28;20033;-49
2022/08/23 03:08:11;;;;;;;2.03;1.65;;;30.10;99.90;;;;;;5050236;28;20128;-49
2022/08/23 03:10:41;;;;;;;2.60;1.80;;;30.10;99.90;;;;;;5050410;28;20025;-49
2022/08/23 03:13:07;;;;;;;2.03;1.50;;;30.10;99.90;;;;;;5052116;28;20424;-49
2022/08/23 03:15:32;;;;;;;2.03;1.83;;;30.10;99.90;;;;;;5054056;28;20101;-49
2022/08/23 03:17:58;;;;;;;2.20;1.67;;;30.10;99.90;;;;;;5036316;28;20052;-50
2022/08/23 03:20:25;;;;;;;2.20;1.77;;;30.10;99.90;;;;;;5054112;28;20310;-50
2022/08/23 03:22:50;;;;;;;1.90;1.75;;;30.10;99.90;;;;;;5054059;28;20519;-48
2022/08/23 03:25:16;;;;;;;2.22;1.50;;;30.10;99.90;;;;;;5054178;28;20033;-49
2022/08/23 03:27:42;;;;;;;2.22;2.03;;;30.10;99.90;;;;;;5054056;28;20075;-48
2022/08/23 03:30:08;;;;;;;3.55;1.77;;;30.10;99.90;;;;;;5054178;28;20029;-52
2022/08/23 03:32:34;;;;;;;1.80;1.70;;;30.10;99.90;;;;;;5054111;28;20017;-49
2022/08/23 03:35:00;;;;;;;3.20;1.60;;;30.10;99.90;;;;;;5053751;28;20097;-49
2022/08/23 03:37:26;;;;;;;2.30;1.42;;;30.00;99.90;;;;;;5053886;28;20017;-49
2022/08/23 03:39:52;;;;;;;2.50;1.67;;;30.00;99.90;;;;;;5053975;28;20028;-49
2022/08/23 03:42:18;;;;;;;1.77;1.50;;;30.00;99.90;;;;;;5053762;28;20075;-49
2022/08/23 03:44:44;;;;;;;2.33;1.88;;;30.00;99.90;;;;;;5053928;28;20096;-49
2022/08/23 03:47:11;;;;;;;2.17;1.80;;;30.00;99.90;;;;;;5035881;28;20025;-49
2022/08/23 03:49:37;;;;;;;1.45;1.27;;;30.00;99.90;;;;;;5053644;28;20104;-49
2022/08/23 03:52:04;;;;;;;2.88;1.75;;;30.00;99.90;;;;;;5053600;28;20178;-49
2022/08/23 03:54:30;;;;;;;2.55;1.70;;;30.00;99.90;;;;;;5053489;28;20082;-49
2022/08/23 03:56:59;;;;;;;3.38;1.98;;;30.00;99.90;;;;;;5035804;28;20511;-49
2022/08/23 03:59:26;;;;;;;2.28;1.80;;;30.00;99.90;;;;;;5054010;28;20033;-50
2022/08/23 04:01:52;;;;;;;2.03;1.70;;;30.00;99.90;;;;;;5054029;28;20039;-49
2022/08/23 04:04:18;;;;;;;2.13;1.73;;;30.00;99.90;;;;;;5053278;28;20033;-49
2022/08/23 04:06:45;;;;;;;1.83;1.42;;;30.00;99.90;;;;;;5053382;28;20120;-50
2022/08/23 04:09:12;;;;;;;2.67;1.60;;;29.90;99.90;;;;;;5053221;28;20063;-50
2022/08/23 04:11:38;;;;;;;3.22;1.52;;;29.90;99.90;;;;;;5035357;28;20033;-49
2022/08/23 04:14:05;;;;;;;1.58;1.45;;;29.90;99.90;;;;;;5053087;28;20033;-50
2022/08/23 04:16:36;;;;;;;1.58;1.38;;;29.90;99.90;;;;;;5053110;28;20091;-50
2022/08/23 04:19:07;;;;;;;2.35;1.50;;;29.90;99.90;;;;;;5053205;28;20025;-49
2022/08/23 04:21:36;;;;;;;1.58;1.40;;;29.90;99.90;;;;;;5053074;28;20090;-49
2022/08/23 04:24:03;;;;;;;1.65;1.20;;;29.90;99.90;;;;;;5052396;28;20032;-49
2022/08/23 04:26:29;;;;;;;1.90;1.35;;;29.90;99.90;;;;;;5053068;28;20380;-50
2022/08/23 04:28:55;;;;;;;2.25;1.45;;;29.90;99.90;;;;;;5035162;28;20466;-48
2022/08/23 04:31:25;;;;;;;1.63;1.25;;;29.90;99.90;;;;;;5052910;28;20358;-49
2022/08/23 04:33:52;;;;;;;1.60;1.33;;;29.90;99.90;;;;;;5052799;28;20047;-49
2022/08/23 04:36:18;;;;;;;3.03;1.98;;;29.90;99.90;;;;;;5053013;28;20071;-49
2022/08/23 04:38:44;;;;;;;2.42;1.33;;;29.90;99.90;;;;;;5052759;28;20492;-49
2022/08/23 04:43:55;;;;;;;1.30;1.20;;;29.90;99.90;;;;;;5052689;28;20064;-49
2022/08/23 04:46:21;;;;;;;1.33;1.10;;;29.90;99.90;;;;;;5052671;28;20021;-49
2022/08/23 04:48:47;;;;;;;1.70;1.40;;;29.90;99.90;;;;;;5052457;28;20032;-49
2022/08/23 04:51:14;;;;;;;1.70;1.55;;;29.80;99.90;;;;;;5034681;28;20033;-49
2022/08/23 04:53:40;;;;;;;2.25;1.30;;;29.80;99.90;;;;;;5052244;28;20041;-49
2022/08/23 04:56:07;;;;;;;1.50;1.30;;;29.80;99.90;;;;;;5052439;28;20240;-49
2022/08/23 04:58:34;;;;;;;1.60;1.30;;;29.80;99.90;;;;;;5052302;28;20453;-49
2022/08/23 05:01:03;;;;;;;2.70;1.58;;;29.80;99.90;;;;;;5052161;28;20053;-49
2022/08/23 05:03:30;;;;;;;2.28;1.35;;;29.80;99.90;;;;;;5052361;28;20025;-49
2022/08/23 05:05:57;;;;;;;1.70;1.48;;;29.80;99.90;;;;;;5052340;28;20492;-48
2022/08/23 05:08:23;;;;;;;2.10;1.30;;;29.80;99.90;;;;;;5052098;28;20457;-49
2022/08/23 05:10:49;;;;;;;1.58;1.40;;;29.80;99.90;;;;;;5052202;28;20029;-49
2022/08/23 05:13:15;;;;;;;1.83;1.45;;;29.80;99.90;;;;;;5052016;28;20040;-49
2022/08/23 05:15:43;;;;;;;2.20;1.40;;;29.80;99.90;;;;;;5051965;28;20379;-49
2022/08/23 05:18:09;;;;;;;3.25;1.50;;;29.80;99.90;;;;;;5034071;28;20562;-49
2022/08/23 05:20:35;;;;;;;2.25;1.60;;;29.80;99.90;;;;;;5051866;28;20488;-49
2022/08/23 05:23:01;;;;;;;5.18;1.58;;;29.80;99.90;;;;;;5051939;28;20025;-49
2022/08/23 05:25:48;;;;;;;2.25;1.67;;;29.70;99.90;;;;;;5051841;28;20021;-49
2022/08/23 05:28:14;;;;;;;1.67;1.38;;;29.70;99.90;;;;;;5051488;28;20025;-49
2022/08/23 05:30:39;;;;;;;7.13;2.00;;;29.70;99.90;;;;;;5051817;28;20035;-49
2022/08/23 05:33:05;;;;;;;2.28;1.60;;;29.80;99.90;;;;;;5051564;28;20025;-49
2022/08/23 05:35:31;;;;;;;3.40;1.67;;;29.70;99.90;;;;;;5016948;28;20029;-49
2022/08/23 05:37:59;;;;;;;2.35;1.80;;;29.70;99.90;;;;;;5051138;28;20428;-49
2022/08/23 05:40:25;;;;;;;3.80;1.70;;;29.70;99.90;;;;;;5051468;28;20032;-49
2022/08/23 05:42:51;;;;;;;2.47;1.60;;;29.70;99.90;;;;;;5051486;28;20116;-49
2022/08/23 05:45:17;;;;;;;1.85;1.50;;;29.70;99.90;;;;;;5051547;28;20258;-50
2022/08/23 05:47:43;;;;;;;3.08;1.75;;;29.70;99.90;;;;;;5051396;28;20418;-49
2022/08/23 05:50:09;;;;;;;3.08;1.73;;;29.70;99.90;;;;;;5051419;28;20079;-48
2022/08/23 05:52:35;;;;;;;3.97;1.52;;;29.70;99.90;;;;;;5051358;28;20136;-48
2022/08/23 05:55:01;;;;;;;2.65;1.70;;;29.70;99.90;;;;;;5051496;28;20049;-49
2022/08/23 05:57:27;;;;;;;2.47;1.55;;;29.70;99.90;;;;;;5033567;28;20025;-49
2022/08/23 05:59:53;;;;;;;1.95;1.58;;;29.70;99.90;;;;;;5051118;28;20040;-48
2022/08/23 06:02:18;;;;;;;2.03;1.80;;;29.70;99.90;;;;;;5051137;28;20465;-49
2022/08/23 06:04:44;;;;;;;3.00;1.95;;;29.70;99.90;;;;;;5051165;28;20466;-49
2022/08/23 06:07:10;;;;;;;3.22;1.60;;;29.70;99.90;;;;;;5051096;28;20104;-49
2022/08/23 06:09:36;;;;;;;4.38;1.75;;;29.70;99.90;;;;;;5051102;28;20025;-49
2022/08/23 06:12:02;;;;;;;2.10;1.80;;;29.70;99.90;;;;;;5051209;28;20492;-49
2022/08/23 06:14:28;;;;;;;3.13;1.50;;;29.70;99.90;;;;;;5050859;28;20068;-49
2022/08/23 06:16:54;;;;;;;3.08;1.83;;;29.70;99.90;;;;;;5033313;28;20473;-49
2022/08/23 06:19:20;;;;;;;2.55;1.38;;;29.70;99.90;;;;;;5051064;28;20034;-48
2022/08/23 06:21:46;;;;;;;1.50;1.40;;;29.70;99.90;;;;;;5050873;28;20469;-49
2022/08/23 06:24:12;;;;;;;4.15;2.05;;;29.70;99.90;;;;;;5050771;28;20449;-48
2022/08/23 06:26:41;;;;;;;3.35;1.90;;;29.70;99.90;;;;;;5050791;28;20445;-49
2022/08/23 06:29:13;;;;;;;1.83;1.63;;;29.70;99.90;;;;;;5050606;28;20033;-48
2022/08/23 06:31:45;;;;;;;2.72;1.70;;;29.70;99.90;;;;;;5050723;28;20429;-48
2022/08/23 06:34:25;;;;;;;2.92;1.38;;;29.70;99.90;;;;;;5050606;28;20037;-48
2022/08/23 06:36:54;;;;;;;2.50;1.38;;;29.70;99.90;;;;;;5050818;28;20550;-48
2022/08/23 06:39:22;;;;;;;2.55;1.52;;;29.70;99.90;;;;;;5050649;28;20136;-49
2022/08/23 06:41:49;;;;;;;2.28;1.70;;;29.70;99.90;;;;;;5050776;28;20262;-50
2022/08/23 06:44:17;;;;;;;2.13;1.40;;;29.70;99.90;;;;;;5050758;28;20036;-49
2022/08/23 06:46:43;;;;;;;2.05;1.73;;;29.70;99.90;;;;;;5050661;28;20116;-49
2022/08/23 06:49:09;;;;;;;2.92;1.80;;;29.70;99.90;;;;;;5054279;28;20075;-49
2022/08/23 06:51:38;;;;;;;3.72;1.95;;;29.70;99.90;;;;;;5054648;28;20021;-49
2022/08/23 06:54:11;;;;;;;2.42;2.20;;;29.70;99.90;;;;;;5054718;28;20040;-49
2022/08/23 06:56:39;;;;;;;2.08;1.50;;;29.70;99.90;;;;;;5054768;28;20079;-49
2022/08/23 06:59:06;;;;;;;3.47;1.73;;;29.70;99.90;;;;;;5054513;28;20071;-49
2022/08/23 07:01:46;;;;;;;3.80;2.15;;;29.80;99.90;;;;;;5054156;28;20106;-49
2022/08/23 07:04:14;;;;;;;2.10;1.77;;;29.80;99.90;;;;;;5054456;28;20071;-49
2022/08/23 07:06:40;;;;;;;2.47;1.88;;;29.80;99.90;;;;;;5054192;28;20021;-49
2022/08/23 07:09:06;;;;;;;2.38;1.80;;;29.80;99.90;;;;;;5054360;28;20025;-49
2022/08/23 07:11:33;;;;;;;2.17;1.85;;;29.80;99.90;;;;;;5036523;28;20511;-48
2022/08/23 07:14:01;;;;;;;3.13;2.15;;;29.80;99.90;;;;;;5054122;28;20128;-49
2022/08/23 07:16:35;;;;;;;2.20;1.50;;;29.90;99.90;;;;;;5054102;28;20039;-49
2022/08/23 07:19:01;;;;;;;2.22;1.73;;;29.90;99.90;;;;;;5054245;28;20025;-50
2022/08/23 07:21:27;;;;;;;2.40;2.20;;;29.90;99.90;;;;;;5054017;28;20108;-48
2022/08/23 07:23:54;;;;;;;2.58;1.98;;;29.90;99.90;;;;;;5053929;28;20285;-49
2022/08/23 07:26:21;;;;;;;1.90;1.67;;;29.90;99.90;;;;;;5053984;28;20033;-49
2022/08/23 07:28:47;;;;;;;2.05;1.58;;;29.90;99.90;;;;;;5053909;28;20025;-49
2022/08/23 07:31:33;;;;;;;1.90;1.67;;;29.90;99.90;;;;;;5053722;28;20029;-49
2022/08/23 07:34:02;;;;;;;2.40;1.67;;;29.90;99.90;;;;;;5053633;28;20029;-49
2022/08/23 07:36:29;;;;;;;2.10;1.70;;;29.90;99.90;;;;;;5053781;28;20025;-49
2022/08/23 07:38:56;;;;;;;2.05;1.50;;;29.90;99.90;;;;;;5053557;28;20071;-51
2022/08/23 07:41:24;;;;;;;2.03;1.70;;;30.00;99.90;;;;;;5053594;28;20093;-51
2022/08/23 07:43:50;;;;;;;1.38;1.27;;;30.00;99.90;;;;;;5053412;28;20025;-48
2022/08/23 07:46:16;;;;;;;1.80;1.60;;;30.00;99.90;;;;;;5053523;28;20017;-48
2022/08/23 07:48:42;;;;;;;3.50;1.83;;;30.00;99.90;;;;;;5053312;28;20047;-49
2022/08/23 07:51:12;;;;;;;2.15;1.55;;;30.00;99.90;;;;;;5053627;28;20017;-49
2022/08/23 07:53:38;;;;;;;3.47;2.15;;;30.00;99.90;;;;;;5053336;28;20381;-51
2022/08/23 07:56:06;;;;;;;4.28;2.47;;;30.00;99.90;;;;;;5053285;28;20117;-49
2022/08/23 07:58:31;;;;;;;3.88;3.10;;;30.00;99.90;;;;;;5035053;28;20412;-49
2022/08/23 08:01:17;;;;;;;4.30;1.80;;;30.00;99.90;;;;;;5052540;28;20045;-49
2022/08/23 08:03:46;;;;;;;2.75;1.63;;;30.00;99.90;;;;;;5035461;28;20048;-49
2022/08/23 08:06:30;;;;;;;2.28;1.67;;;30.10;99.90;;;;;;5053282;28;20341;-49
2022/08/23 08:08:57;;;;;;;2.65;1.63;;;30.00;99.90;;;;;;5053289;28;20021;-48
2022/08/23 08:11:26;;;;;;;2.97;2.17;;;30.10;99.90;;;;;;5053203;28;20071;-49
2022/08/23 08:13:53;;;;;;;2.78;1.83;;;30.00;99.90;;;;;;5053091;28;20456;-48
2022/08/23 08:16:41;;;;;;;1.55;1.27;;;30.10;99.90;;;;;;5053057;28;20021;-49
2022/08/23 08:19:09;;;;;;;1.90;1.70;;;30.10;99.90;;;;;;5052725;28;20064;-49
2022/08/23 08:21:36;;;;;;;2.33;1.50;;;30.10;99.90;;;;;;5052873;28;20441;-49
2022/08/23 08:24:03;;;;;;;2.20;1.50;;;30.10;99.90;;;;;;5052937;28;20025;-49
2022/08/23 08:26:29;;;;;;;2.30;1.60;;;30.10;99.90;;;;;;5052750;28;20036;-48
2022/08/23 08:28:55;;;;;;;2.47;1.50;;;30.10;99.90;;;;;;5052703;28;20025;-48
2022/08/23 08:31:23;;;;;;;2.83;1.70;;;30.10;99.90;;;;;;5052736;28;20029;-49
2022/08/23 08:33:49;;;;;;;2.30;1.80;;;30.10;99.90;;;;;;5052401;28;20434;-49
2022/08/23 08:36:28;;;;;;;2.08;1.60;;;30.10;99.90;;;;;;5052374;28;20108;-49
2022/08/23 08:38:54;;;;;;;4.43;2.22;;;30.20;99.90;;;;;;5052680;28;20033;-49
2022/08/23 08:41:35;;;;;;;2.42;1.50;;;30.10;99.90;;;;;;5052686;28;20380;-49
2022/08/23 08:44:12;;;;;;;1.77;1.48;;;30.10;99.90;;;;;;5052338;28;20052;-49
2022/08/23 08:46:48;;;;;;;2.55;1.48;;;30.20;99.90;;;;;;5052552;28;20021;-49
2022/08/23 08:49:23;;;;;;;1.95;1.50;;;30.10;99.90;;;;;;5052578;28;20029;-49
2022/08/23 08:52:01;;;;;;;2.08;1.75;;;30.20;99.90;;;;;;5052608;28;20021;-49
2022/08/23 08:54:29;;;;;;;2.45;1.75;;;30.20;99.90;;;;;;5052163;28;20041;-49
2022/08/23 08:56:57;;;;;;;1.98;1.40;;;30.20;99.90;;;;;;5052336;28;20024;-49
2022/08/23 08:59:44;;;;;;;2.95;1.80;;;30.20;99.90;;;;;;5051932;28;20029;-49
2022/08/23 09:02:17;;;;;;;1.42;1.30;;;30.20;99.90;;;;;;5052420;28;20056;-49
2022/08/23 09:04:44;;;;;;;2.65;1.70;;;30.20;99.90;;;;;;5052239;28;20040;-49
2022/08/23 09:07:31;;;;;;;2.33;1.75;;;30.20;99.90;;;;;;5052038;28;20017;-56
2022/08/23 09:10:09;;;;;;;1.63;1.45;;;30.20;99.90;;;;;;5051838;28;20086;-50
2022/08/23 09:13:08;;;;;;;2.35;1.60;;;30.20;99.90;;;;;;5052222;28;20032;-49
2022/08/23 09:15:57;;;;;;;2.30;1.63;;;30.20;99.90;;;;;;5052020;28;20110;-49
2022/08/23 09:18:24;;;;;;;2.25;1.30;;;30.20;99.90;;;;;;5051829;28;20047;-50
2022/08/23 09:20:53;;;;;;;2.47;1.70;;;30.30;99.90;;;;;;5051973;28;20108;-50
2022/08/23 09:23:26;;;;;;;1.70;1.40;;;30.30;99.90;;;;;;5051977;28;20120;-50
2022/08/23 09:26:03;;;;;;;1.95;1.55;;;30.30;99.90;;;;;;5051817;28;20023;-50
2022/08/23 09:28:34;;;;;;;2.10;1.60;;;30.30;99.90;;;;;;5051713;28;20374;-50
2022/08/23 09:31:00;;;;;;;2.78;1.85;;;30.30;99.90;;;;;;5051732;28;20108;-50
2022/08/23 09:33:40;;;;;;;2.55;1.90;;;30.30;99.90;;;;;;5051604;28;20108;-49
2022/08/23 09:36:22;;;;;;;3.63;1.73;;;30.30;99.90;;;;;;5051438;28;20079;-49
2022/08/23 09:38:53;;;;;;;2.72;1.80;;;30.30;99.90;;;;;;5051465;28;20029;-49
2022/08/23 09:41:23;;;;;;;5.22;2.00;;;30.30;99.90;;;;;;5051364;28;20025;-50
2022/08/23 09:43:51;;;;;;;2.20;1.75;;;30.30;99.90;;;;;;5051342;28;20103;-49
2022/08/23 09:46:29;;;;;;;2.42;1.98;;;30.30;99.90;;;;;;5051504;28;20021;-50
2022/08/23 09:49:00;;;;;;;2.67;1.90;;;30.30;99.90;;;;;;5051307;28;20108;-50
2022/08/23 09:51:35;;;;;;;2.50;1.88;;;30.30;99.90;;;;;;5051186;28;20075;-50
2022/08/23 09:54:20;;;;;;;2.88;2.00;;;30.30;99.90;;;;;;5051129;28;20471;-50
2022/08/23 09:56:58;;;;;;;3.83;2.63;;;30.30;99.90;;;;;;5051387;28;20119;-49
2022/08/23 09:59:27;;;;;;;2.13;1.92;;;30.40;99.90;;;;;;5051176;28;20491;-48
2022/08/23 10:01:58;;;;;;;4.40;1.77;;;30.40;99.90;;;;;;5051533;28;20495;-50
2022/08/23 10:04:36;;;;;;;3.60;2.42;;;30.40;99.90;;;;;;5051125;28;20037;-49
2022/08/23 10:07:19;;;;;;;2.13;1.73;;;30.40;99.90;;;;;;5051087;28;20028;-50
2022/08/23 10:09:45;;;;;;;3.58;2.28;;;30.40;99.90;;;;;;5051210;28;20075;-49
2022/08/23 10:12:11;;;;;;;2.92;2.00;;;30.50;99.90;;;;;;5051091;28;20021;-50
2022/08/23 10:14:37;;;;;;;3.05;2.08;;;30.40;99.90;;;;;;5050787;28;20388;-50
2022/08/23 10:17:09;;;;;;;3.15;1.98;;;30.40;99.90;;;;;;5050887;28;20028;-50
2022/08/23 10:19:48;;;;;;;4.93;2.05;;;30.40;99.90;;;;;;5050851;28;20059;-49
2022/08/23 10:22:31;;;;;;;3.42;2.10;;;30.50;99.90;;;;;;5032382;28;20028;-50
2022/08/23 10:25:07;;;;;;;2.20;1.83;;;30.50;99.90;;;;;;5050832;28;20035;-50
2022/08/23 10:31:04;;;;;;;2.45;2.05;;;30.50;99.90;;;;;;5050971;28;20040;-50
2022/08/23 10:34:10;;;;;;;2.67;2.40;;;30.50;99.90;;;;;;5050536;28;20544;-50
2022/08/23 10:36:54;;;;;;;3.33;2.25;;;30.60;99.90;;;;;;5050719;28;20029;-49
2022/08/23 10:39:24;;;;;;;2.63;2.25;;;30.60;99.90;;;;;;5051175;28;20111;-49
2022/08/23 10:42:05;;;;;;;2.60;2.22;;;30.60;99.90;;;;;;5050903;28;20029;-50
2022/08/23 10:44:36;;;;;;;3.05;2.00;;;30.60;99.90;;;;;;5050564;28;20086;-49
2022/08/23 10:47:17;;;;;;;4.40;2.00;;;30.60;99.90;;;;;;5032726;28;20029;-49
2022/08/23 10:49:52;;;;;;;3.72;2.10;;;30.60;99.90;;;;;;5050448;28;20029;-50
2022/08/23 10:52:31;;;;;;;2.88;1.77;;;30.60;99.90;;;;;;5050704;28;20025;-50
2022/08/23 10:55:15;;;;;;;3.03;2.30;;;30.70;99.90;;;;;;5050599;28;20036;-50
2022/08/23 10:57:45;;;;;;;2.65;2.08;;;30.70;99.90;;;;;;5050697;28;20472;-50
2022/08/23 11:00:19;;;;;;;3.85;2.00;;;30.70;99.90;;;;;;5050528;28;20053;-50
2022/08/23 11:02:57;;;;;;;3.20;2.10;;;30.70;99.90;;;;;;5050490;28;20025;-50
2022/08/23 11:05:29;;;;;;;3.25;2.30;;;30.70;99.90;;;;;;5050698;28;20419;-50
2022/08/23 11:08:35;;;;;;;2.75;2.30;;;30.70;99.90;;;;;;5050361;28;20079;-50
2022/08/23 11:11:02;;;;;;;3.05;2.38;;;30.70;99.90;;;;;;5047322;28;20049;-50
2022/08/23 11:13:29;;;;;;;2.35;1.98;;;30.80;99.90;;;;;;5050323;28;20099;-49
2022/08/23 11:16:22;;;;;;;2.30;2.00;;;30.80;99.90;;;;;;5050397;28;20013;-50
2022/08/23 11:18:49;;;;;;;2.00;1.80;;;30.80;99.90;;;;;;5050445;28;20060;-49
2022/08/23 11:21:30;;;;;;;3.70;2.55;;;30.80;99.90;;;;;;5032591;28;20385;-49
2022/08/23 11:23:58;;;;;;;2.72;2.00;;;30.80;99.90;;;;;;5050395;28;20477;-50
2022/08/23 11:26:34;;;;;;;3.28;2.15;;;30.80;99.90;;;;;;5050414;28;20025;-49
2022/08/23 11:29:06;;;;;;;2.60;2.03;;;30.80;99.90;;;;;;5050303;28;20029;-49
2022/08/23 11:31:37;;;;;;;3.30;2.47;;;30.90;99.90;;;;;;5050356;28;20025;-50
2022/08/23 11:34:18;;;;;;;2.95;2.30;;;30.90;99.90;;;;;;5051663;28;20516;-49
2022/08/23 11:37:19;;;;;;;2.95;2.20;;;30.90;99.90;;;;;;5053936;28;20029;-49
2022/08/23 11:39:56;;;;;;;4.82;2.53;;;30.90;99.90;;;;;;5053599;28;20029;-49
2022/08/23 11:42:43;;;;;;;3.50;2.35;;;31.00;99.90;;;;;;5053937;28;20096;-49
2022/08/23 11:45:45;;;;;;;2.30;2.10;;;31.00;99.90;;;;;;5053582;28;20029;-49
2022/08/23 11:48:26;;;;;;;3.25;2.50;;;31.00;99.90;;;;;;5032487;28;20033;-49
2022/08/23 11:51:06;;;;;;;6.55;2.88;;;31.00;99.90;;;;;;5053616;28;20119;-50
2022/08/23 11:53:48;;;;;;;3.40;2.50;;;31.00;99.90;;;;;;5053418;28;20536;-49
2022/08/23 11:56:35;;;;;;;2.80;2.30;;;31.00;99.90;;;;;;5053261;28;20025;-49
2022/08/23 11:59:14;;;;;;;3.15;2.40;;;31.00;99.90;;;;;;5053388;28;20090;-50
2022/08/23 12:01:40;;;;;;;3.67;2.63;;;31.10;99.90;;;;;;5053190;28;20053;-50
2022/08/23 12:04:27;;;;;;;4.20;2.70;;;31.10;99.90;;;;;;5053191;28;20094;-50
2022/08/23 12:07:00;;;;;;;3.10;2.70;;;31.10;99.90;;;;;;5053537;28;20481;-50
2022/08/23 12:09:26;;;;;;;4.32;2.70;;;31.10;99.90;;;;;;5036538;28;20449;-50
2022/08/23 12:11:54;;;;;;;2.90;2.47;;;31.10;99.90;;;;;;5053071;28;20021;-50
2022/08/23 12:14:57;;;;;;;4.07;2.53;;;31.10;99.90;;;;;;5053107;28;20382;-50
2022/08/23 12:17:24;;;;;;;5.80;3.28;;;31.10;99.90;;;;;;4971927;28;20606;-50
2022/08/23 12:19:52;;;;;;;;;;;31.10;99.90;;;;;;5038503;28;20033;-50
2022/08/23 12:22:25;;;;;;;4.45;3.40;;;31.20;99.90;;;;;;5052873;28;20284;-50
2022/08/23 12:25:17;;;;;;;4.20;2.70;;;31.20;99.90;;;;;;5034761;28;20028;-50
2022/08/23 12:27:48;;;;;;;3.15;2.55;;;31.20;99.90;;;;;;5052712;28;20021;-50
2022/08/23 12:30:23;;;;;;;2.40;2.15;;;31.20;99.90;;;;;;5052964;28;20021;-50
2022/08/23 12:33:09;;;;;;;3.70;2.30;;;31.20;99.90;;;;;;5035063;28;20024;-50
2022/08/23 12:35:59;;;;;;;3.37;2.40;;;31.20;99.90;;;;;;5011134;28;20504;-50
2022/08/23 12:38:35;;;;;;;3.75;2.78;;;31.20;99.90;;;;;;5052910;28;20495;-50
2022/08/23 12:41:17;;;;;;;4.00;2.45;;;31.30;99.90;;;;;;5052528;28;20029;-50
2022/08/23 12:44:01;;;;;;;4.72;2.58;;;31.30;99.90;;;;;;5052640;28;20104;-50
2022/08/23 12:46:39;;;;;;;3.97;2.50;;;31.30;99.90;;;;;;5034262;28;20120;-50
2022/08/23 12:49:07;;;;;;;4.07;2.58;;;31.30;99.90;;;;;;5052420;28;20036;-50
2022/08/23 12:51:40;;;;;;;3.30;2.83;;;31.30;99.90;;;;;;5034597;28;20495;-50
2022/08/23 12:54:15;;;;;;;4.10;2.63;;;31.30;99.90;;;;;;5052497;28;20045;-50
2022/08/23 12:56:45;;;;;;;2.83;2.33;;;31.30;99.90;;;;;;5052528;28;20031;-50
2022/08/23 12:59:29;;;;;;;2.45;2.10;;;31.30;99.90;;;;;;5052336;28;20033;-49
2022/08/23 13:01:55;;;;;;;3.47;2.55;;;31.30;99.90;;;;;;5052271;28;20037;-49
2022/08/23 13:04:21;;;;;;;2.65;2.30;;;31.40;99.90;;;;;;5052216;28;20043;-50
2022/08/23 13:06:56;;;;;;;3.88;2.67;;;31.40;99.90;;;;;;5052253;28;20583;-50
2022/08/23 13:09:31;;;;;;;3.50;2.30;;;31.40;99.90;;;;;;5052322;28;20024;-50
2022/08/23 13:11:58;;;;;;;3.67;2.60;;;31.50;99.90;;;;;;5052210;28;20021;-50
2022/08/23 13:14:38;;;;;;;3.20;2.80;;;31.50;99.90;;;;;;5052150;28;20055;-50
2022/08/23 13:17:21;;;;;;;3.22;2.90;;;31.50;99.90;;;;;;5033980;28;20434;-50
2022/08/23 13:19:50;;;;;;;3.03;2.50;;;31.50;99.90;;;;;;5051881;28;20013;-50
2022/08/23 13:22:23;;;;;;;4.03;3.22;;;31.50;99.90;;;;;;5051926;28;20049;-50
2022/08/23 13:25:00;;;;;;;3.50;2.20;;;31.50;99.90;;;;;;5051845;28;20355;-50